Time;durP1;ratioP1;P1;durP2;ratioP2;P2;SDS_P1;SDS_P2;PMS_P1;PMS_P2;Temp;Humidity;BMP_temperature;BMP_pressure;BME280_temperature;BME280_humidity;BME280_pressure;Samples;Min_cycle;Max_cycle;Signal;HPM_P1;HPM_P2
2022/06/09 00:00:30;;;;;;;2.13;1.25;;;14.30;99.90;;;;;;6091601;23;21020;-78
2022/06/09 00:03:01;;;;;;;3.50;1.37;;;14.30;99.90;;;;;;6091942;23;20275;-78
2022/06/09 00:05:31;;;;;;;2.10;1.60;;;14.30;99.90;;;;;;6091677;23;20422;-78
2022/06/09 00:08:00;;;;;;;1.87;1.33;;;14.40;99.90;;;;;;6090599;23;20505;-78
2022/06/09 00:10:32;;;;;;;1.30;1.20;;;14.40;99.90;;;;;;6091621;23;20466;-79
2022/06/09 00:13:00;;;;;;;5.40;2.30;;;14.40;99.90;;;;;;6091931;23;20458;-78
2022/06/09 00:15:27;;;;;;;1.70;1.27;;;14.50;99.90;;;;;;6091240;23;21004;-79
2022/06/09 00:17:54;;;;;;;1.53;1.40;;;14.50;99.90;;;;;;6092036;23;20525;-78
2022/06/09 00:20:22;;;;;;;1.47;1.27;;;14.60;99.90;;;;;;6091642;23;20966;-79
2022/06/09 00:22:49;;;;;;;1.03;0.90;;;14.50;99.90;;;;;;6091558;23;20777;-79
2022/06/09 00:25:16;;;;;;;1.10;1.00;;;14.50;99.90;;;;;;6091224;23;20474;-78
2022/06/09 00:27:45;;;;;;;1.90;1.70;;;14.60;99.90;;;;;;6091770;23;20458;-78
2022/06/09 00:30:15;;;;;;;1.20;1.10;;;14.50;99.90;;;;;;6091518;23;20454;-78
2022/06/09 00:32:41;;;;;;;1.20;1.10;;;14.60;99.90;;;;;;6091782;23;20434;-78
2022/06/09 00:35:09;;;;;;;1.30;1.20;;;14.60;99.90;;;;;;6091300;23;20831;-78
2022/06/09 00:37:37;;;;;;;1.17;1.07;;;14.60;99.90;;;;;;6091265;23;20438;-78
2022/06/09 00:40:04;;;;;;;1.17;1.07;;;14.60;99.90;;;;;;6091651;23;20492;-78
2022/06/09 00:42:33;;;;;;;1.30;1.20;;;14.70;99.90;;;;;;6090951;23;20442;-78
2022/06/09 00:45:23;;;;;;;2.73;1.37;;;14.60;99.90;;;;;;6091444;23;20439;-79
2022/06/09 00:47:51;;;;;;;1.57;1.20;;;14.60;99.90;;;;;;6091631;23;20472;-78
2022/06/09 00:50:20;;;;;;;1.40;1.30;;;14.60;99.90;;;;;;6091707;23;20469;-78
2022/06/09 00:52:51;;;;;;;1.37;1.27;;;14.60;99.90;;;;;;6091472;23;20838;-78
2022/06/09 00:55:21;;;;;;;1.30;1.20;;;14.60;99.90;;;;;;6091571;23;20434;-78
2022/06/09 00:57:51;;;;;;;1.60;1.50;;;14.60;99.90;;;;;;6091666;23;20441;-79
2022/06/09 01:00:21;;;;;;;1.33;1.23;;;14.60;99.90;;;;;;6091450;23;20516;-78
2022/06/09 01:02:53;;;;;;;1.20;0.90;;;14.60;99.90;;;;;;6091095;23;20442;-79
2022/06/09 01:05:23;;;;;;;1.40;1.00;;;14.60;99.90;;;;;;6091104;23;20443;-78
2022/06/09 01:07:55;;;;;;;3.10;1.37;;;14.60;99.90;;;;;;6091085;23;20463;-78
2022/06/09 01:10:23;;;;;;;2.17;1.03;;;14.70;99.90;;;;;;6091348;23;20457;-79
2022/06/09 01:12:50;;;;;;;0.90;0.90;;;14.70;99.90;;;;;;6091298;23;20470;-78
2022/06/09 01:15:19;;;;;;;2.20;1.00;;;14.70;99.90;;;;;;6090777;23;21041;-78
2022/06/09 01:17:54;;;;;;;2.30;1.30;;;14.70;99.90;;;;;;6091519;23;20568;-78
2022/06/09 01:20:36;;;;;;;1.30;1.20;;;14.80;99.90;;;;;;6091207;23;20203;-78
2022/06/09 01:23:43;;;;;;;1.30;1.10;;;14.70;99.90;;;;;;6090870;23;20437;-78
2022/06/09 01:27:00;;;;;;;2.27;1.03;;;14.60;99.90;;;;;;6091193;23;20513;-78
2022/06/09 01:29:38;;;;;;;1.20;1.10;;;14.50;99.90;;;;;;6091051;23;20541;-78
2022/06/09 01:32:12;;;;;;;1.10;0.80;;;14.50;99.90;;;;;;6091124;23;20438;-78
2022/06/09 01:34:47;;;;;;;1.17;0.97;;;14.40;99.90;;;;;;6091358;23;20433;-78
2022/06/09 01:37:16;;;;;;;1.73;0.90;;;14.30;99.90;;;;;;6090962;23;20429;-78
2022/06/09 01:39:47;;;;;;;1.03;0.80;;;14.20;99.90;;;;;;6091297;23;20450;-78
2022/06/09 01:42:25;;;;;;;1.17;1.07;;;14.10;99.90;;;;;;6091030;23;20438;-78
2022/06/09 01:44:57;;;;;;;3.00;1.00;;;14.10;99.90;;;;;;6090686;23;20786;-78
2022/06/09 01:47:33;;;;;;;0.90;0.90;;;14.10;99.90;;;;;;6091186;23;20833;-78
2022/06/09 01:50:06;;;;;;;1.00;0.90;;;14.10;99.90;;;;;;6090823;23;21048;-78
2022/06/09 01:52:34;;;;;;;2.03;0.90;;;14.10;99.90;;;;;;6090651;23;20434;-78
2022/06/09 01:55:04;;;;;;;0.90;0.80;;;14.10;99.90;;;;;;6091192;23;20434;-78
2022/06/09 01:57:37;;;;;;;1.17;0.70;;;14.00;99.90;;;;;;6092236;23;20731;-78
2022/06/09 02:00:08;;;;;;;1.17;0.93;;;14.00;99.90;;;;;;6092494;23;20533;-78
2022/06/09 02:02:40;;;;;;;2.23;1.00;;;13.90;99.90;;;;;;6092326;23;20517;-78
2022/06/09 02:05:12;;;;;;;1.45;1.00;;;13.80;99.90;;;;;;6090892;23;20476;-79
2022/06/09 02:07:42;;;;;;;1.17;1.00;;;13.70;99.90;;;;;;6091184;23;20184;-78
2022/06/09 02:10:16;;;;;;;2.73;1.00;;;13.60;99.90;;;;;;6092385;23;20458;-79
2022/06/09 02:12:43;;;;;;;2.40;1.00;;;13.60;99.90;;;;;;6092162;23;20439;-79
2022/06/09 02:15:13;;;;;;;1.20;1.10;;;13.60;99.90;;;;;;6091704;23;20456;-78
2022/06/09 02:17:45;;;;;;;1.80;1.10;;;13.70;99.90;;;;;;6092438;23;20465;-78
2022/06/09 02:20:14;;;;;;;1.20;1.10;;;13.70;99.90;;;;;;6092230;23;20450;-79
2022/06/09 02:22:40;;;;;;;1.50;1.10;;;13.70;99.90;;;;;;6092136;23;20191;-78
2022/06/09 02:25:08;;;;;;;1.47;1.20;;;13.70;99.90;;;;;;6091779;23;20853;-78
2022/06/09 02:27:35;;;;;;;1.60;1.30;;;13.70;99.90;;;;;;6092357;23;20430;-78
2022/06/09 02:30:02;;;;;;;1.40;1.30;;;13.70;99.90;;;;;;6092339;23;20291;-78
2022/06/09 02:32:29;;;;;;;1.40;1.27;;;13.80;99.90;;;;;;6091992;23;20442;-78
2022/06/09 02:34:57;;;;;;;1.43;1.20;;;13.80;99.90;;;;;;6091973;23;20801;-78
2022/06/09 02:37:24;;;;;;;3.00;1.87;;;13.80;99.90;;;;;;6092195;23;20517;-79
2022/06/09 02:39:51;;;;;;;1.30;1.20;;;13.80;99.90;;;;;;6092284;23;20573;-79
2022/06/09 02:42:18;;;;;;;2.00;1.50;;;13.90;99.90;;;;;;6092289;23;20470;-78
2022/06/09 02:44:45;;;;;;;1.90;1.30;;;13.90;99.90;;;;;;6091838;23;20438;-79
2022/06/09 02:47:12;;;;;;;2.20;1.60;;;13.90;99.90;;;;;;6092063;23;20825;-78
2022/06/09 02:49:39;;;;;;;1.67;1.57;;;14.00;99.90;;;;;;6091621;23;21046;-78
2022/06/09 02:52:07;;;;;;;1.40;1.30;;;14.00;99.90;;;;;;6092489;23;20438;-78
2022/06/09 02:54:34;;;;;;;2.23;1.53;;;14.00;99.90;;;;;;6091947;23;20569;-79
2022/06/09 02:57:01;;;;;;;1.87;1.30;;;14.00;99.90;;;;;;6091965;23;20521;-78
2022/06/09 02:59:28;;;;;;;1.67;1.37;;;14.00;99.90;;;;;;6091939;23;20458;-79
2022/06/09 03:01:55;;;;;;;1.70;1.60;;;14.00;99.90;;;;;;6092351;23;20446;-78
2022/06/09 03:04:22;;;;;;;2.10;1.90;;;14.00;99.90;;;;;;6092113;23;20430;-78
2022/06/09 03:06:50;;;;;;;1.70;1.60;;;14.00;99.90;;;;;;6091517;23;21021;-79
2022/06/09 03:09:18;;;;;;;2.20;1.47;;;14.00;99.90;;;;;;6092198;23;20477;-79
2022/06/09 03:11:45;;;;;;;1.80;1.60;;;14.00;99.90;;;;;;6092144;23;20473;-79
2022/06/09 03:14:13;;;;;;;1.87;1.77;;;14.00;99.90;;;;;;6092142;23;20521;-79
2022/06/09 03:16:40;;;;;;;1.88;1.60;;;14.10;99.90;;;;;;6091572;23;20446;-79
2022/06/09 03:19:07;;;;;;;2.23;1.60;;;14.10;99.90;;;;;;6091807;23;20619;-79
2022/06/09 03:21:34;;;;;;;2.08;1.85;;;14.10;99.90;;;;;;6092307;23;20504;-78
2022/06/09 03:24:01;;;;;;;2.03;1.80;;;14.10;99.90;;;;;;6091289;23;20198;-79
2022/06/09 03:26:29;;;;;;;4.27;1.80;;;14.10;99.90;;;;;;6091636;23;20465;-78
2022/06/09 03:28:56;;;;;;;2.78;2.10;;;14.10;99.90;;;;;;6091597;23;20459;-78
2022/06/09 03:31:23;;;;;;;3.30;1.80;;;14.10;99.90;;;;;;6092184;23;20198;-79
2022/06/09 03:33:50;;;;;;;2.23;1.57;;;14.10;99.90;;;;;;6091804;23;20438;-78
2022/06/09 03:36:17;;;;;;;3.90;2.20;;;14.10;99.90;;;;;;6091796;23;20435;-78
2022/06/09 03:38:44;;;;;;;2.43;1.80;;;14.10;99.90;;;;;;6092002;23;20466;-78
2022/06/09 03:41:11;;;;;;;1.73;1.60;;;14.20;99.90;;;;;;6091879;23;20441;-79
2022/06/09 03:43:40;;;;;;;3.93;2.00;;;14.20;99.90;;;;;;6092190;23;20470;-78
2022/06/09 03:46:08;;;;;;;5.20;2.30;;;14.20;99.90;;;;;;6091741;23;20877;-79
2022/06/09 03:48:35;;;;;;;2.83;1.87;;;14.20;99.90;;;;;;6091660;23;20545;-78
2022/06/09 03:51:02;;;;;;;2.77;2.10;;;14.20;99.90;;;;;;6091894;23;20439;-78
2022/06/09 03:53:29;;;;;;;2.40;2.20;;;14.20;99.90;;;;;;6091875;23;20941;-79
2022/06/09 03:55:57;;;;;;;3.77;2.03;;;14.10;99.90;;;;;;6092950;23;20462;-77
2022/06/09 03:58:24;;;;;;;2.67;1.83;;;14.10;99.90;;;;;;6093694;23;20444;-79
2022/06/09 04:00:52;;;;;;;1.90;1.80;;;14.10;99.90;;;;;;6094069;23;20439;-79
2022/06/09 04:03:19;;;;;;;3.67;2.27;;;14.00;99.90;;;;;;6095019;23;20821;-79
2022/06/09 04:05:46;;;;;;;1.93;1.73;;;14.00;99.90;;;;;;6096664;23;20450;-78
2022/06/09 04:08:14;;;;;;;3.70;2.30;;;14.00;99.90;;;;;;6097640;23;20446;-80
2022/06/09 04:10:41;;;;;;;2.75;1.90;;;14.00;99.90;;;;;;6105476;23;20431;-79
2022/06/09 04:13:09;;;;;;;3.13;2.00;;;14.00;99.90;;;;;;6107266;23;20188;-78
2022/06/09 04:15:37;;;;;;;3.57;2.37;;;14.00;99.90;;;;;;6101420;23;20989;-79
2022/06/09 04:18:06;;;;;;;3.57;2.40;;;14.10;99.90;;;;;;6092172;23;20426;-78
2022/06/09 04:20:33;;;;;;;2.13;1.80;;;14.10;99.90;;;;;;6097798;23;20465;-78
2022/06/09 04:23:00;;;;;;;4.03;2.40;;;14.10;99.90;;;;;;6106658;23;20510;-78
2022/06/09 04:25:27;;;;;;;2.70;2.23;;;14.10;99.90;;;;;;6105180;23;20522;-78
2022/06/09 04:27:54;;;;;;;4.00;2.43;;;14.10;99.90;;;;;;6100417;23;20438;-79
2022/06/09 04:30:22;;;;;;;3.73;2.07;;;14.20;99.90;;;;;;6095650;23;20554;-79
2022/06/09 04:32:49;;;;;;;2.30;2.10;;;14.20;99.90;;;;;;6092062;23;20439;-78
2022/06/09 04:35:18;;;;;;;4.07;2.57;;;14.30;99.90;;;;;;6091198;23;20952;-78
2022/06/09 04:38:03;;;;;;;4.17;2.07;;;14.40;99.90;;;;;;6092034;23;20511;-79
2022/06/09 04:40:34;;;;;;;2.30;2.10;;;14.30;99.90;;;;;;6091622;23;20810;-79
2022/06/09 04:43:02;;;;;;;3.53;1.90;;;14.30;99.90;;;;;;6091577;23;21116;-78
2022/06/09 04:45:29;;;;;;;3.03;1.83;;;14.30;99.90;;;;;;6091223;23;20498;-78
2022/06/09 04:47:56;;;;;;;3.35;1.67;;;14.30;99.90;;;;;;6091315;23;20806;-79
2022/06/09 04:50:25;;;;;;;3.40;2.00;;;14.20;99.90;;;;;;6091294;23;20713;-78
2022/06/09 04:52:52;;;;;;;3.30;1.80;;;14.10;99.90;;;;;;6091519;23;20256;-78
2022/06/09 04:55:19;;;;;;;4.47;1.70;;;14.10;99.90;;;;;;6091258;23;20509;-78
2022/06/09 04:57:46;;;;;;;2.20;1.80;;;14.10;99.90;;;;;;6092329;23;20434;-79
2022/06/09 05:00:16;;;;;;;3.30;1.80;;;14.00;99.90;;;;;;6091247;23;20458;-79
2022/06/09 05:02:43;;;;;;;4.30;2.20;;;14.00;99.90;;;;;;6091095;23;20786;-78
2022/06/09 05:05:18;;;;;;;1.80;1.70;;;13.90;99.90;;;;;;6091329;23;20521;-78
2022/06/09 05:07:46;;;;;;;3.30;2.30;;;13.90;99.90;;;;;;6091339;23;20513;-78
2022/06/09 05:10:14;;;;;;;3.73;2.00;;;13.90;99.90;;;;;;6091004;23;20816;-78
2022/06/09 05:12:41;;;;;;;3.47;1.90;;;13.90;99.90;;;;;;6091319;23;20820;-78
2022/06/09 05:17:37;;;;;;;3.70;2.30;;;13.90;99.90;;;;;;6080362;23;20442;-82
2022/06/09 05:20:05;;;;;;;5.27;2.17;;;13.90;99.90;;;;;;6091323;23;20481;-82
2022/06/09 05:22:32;;;;;;;3.10;2.20;;;13.90;99.90;;;;;;6091398;23;20521;-82
2022/06/09 05:25:00;;;;;;;2.00;1.90;;;13.90;99.90;;;;;;6091192;23;20270;-82
2022/06/09 05:27:27;;;;;;;2.53;2.30;;;13.90;99.90;;;;;;6091116;23;20438;-81
2022/06/09 05:29:54;;;;;;;2.20;2.00;;;14.00;99.90;;;;;;6092122;23;20318;-82
2022/06/09 05:32:21;;;;;;;3.17;2.20;;;14.00;99.90;;;;;;6092756;23;20568;-82
2022/06/09 05:34:48;;;;;;;3.40;2.00;;;14.00;99.90;;;;;;6092515;23;20215;-82
2022/06/09 05:37:15;;;;;;;3.63;1.93;;;14.10;99.90;;;;;;6092364;23;20247;-82
2022/06/09 05:45:13;;;;;;;3.70;2.07;;;14.30;99.90;;;;;;6092213;23;20442;-82
2022/06/09 05:47:40;;;;;;;2.20;2.00;;;14.40;99.90;;;;;;6092335;23;20785;-82
2022/06/09 05:50:09;;;;;;;3.67;2.30;;;14.50;99.90;;;;;;6066521;23;20531;-82
2022/06/09 05:52:36;;;;;;;3.53;2.17;;;14.70;99.90;;;;;;6092753;23;20454;-81
2022/06/09 05:55:04;;;;;;;4.10;2.10;;;14.60;99.90;;;;;;6092135;23;20431;-81
2022/06/09 05:57:32;;;;;;;3.97;2.00;;;14.60;99.90;;;;;;6092247;23;20434;-82
2022/06/09 05:59:59;;;;;;;3.63;2.40;;;14.70;99.90;;;;;;6092305;23;20550;-81
2022/06/09 06:02:27;;;;;;;3.23;1.77;;;14.90;99.90;;;;;;6092264;23;20446;-81
2022/06/09 06:04:54;;;;;;;3.37;1.80;;;15.20;99.90;;;;;;6092140;23;20446;-82
2022/06/09 06:07:21;;;;;;;5.07;2.67;;;15.30;99.90;;;;;;6092369;23;20469;-82
2022/06/09 06:09:48;;;;;;;2.30;1.67;;;15.40;99.90;;;;;;6092555;23;20470;-82
2022/06/09 06:12:16;;;;;;;5.60;2.10;;;15.40;99.90;;;;;;6092355;23;20450;-82
2022/06/09 06:14:44;;;;;;;2.77;2.00;;;15.40;99.90;;;;;;6092571;23;20449;-81
2022/06/09 06:17:11;;;;;;;2.33;1.90;;;15.20;99.90;;;;;;6091725;23;20844;-81
2022/06/09 06:19:39;;;;;;;4.23;2.27;;;15.20;99.90;;;;;;6092404;23;20486;-81
2022/06/09 06:22:06;;;;;;;2.87;1.83;;;15.20;99.90;;;;;;6092390;23;20443;-82
2022/06/09 06:24:33;;;;;;;2.50;1.93;;;15.30;99.90;;;;;;6092433;23;20431;-81
2022/06/09 06:27:00;;;;;;;4.93;2.30;;;15.30;99.90;;;;;;6092070;23;20517;-81
2022/06/09 06:29:28;;;;;;;5.73;1.90;;;15.40;99.90;;;;;;6092068;23;20512;-82
2022/06/09 06:31:56;;;;;;;4.47;1.87;;;15.60;99.90;;;;;;6092350;23;20569;-82
2022/06/09 06:34:24;;;;;;;6.63;1.90;;;15.80;99.90;;;;;;6091870;23;21045;-81
2022/06/09 06:36:51;;;;;;;3.97;1.93;;;15.90;99.90;;;;;;6092026;23;20918;-81
2022/06/09 06:39:18;;;;;;;3.53;2.33;;;16.00;99.90;;;;;;6092155;23;20570;-82
2022/06/09 06:41:45;;;;;;;4.50;2.30;;;16.10;99.90;;;;;;6091511;23;20443;-82
2022/06/09 06:44:12;;;;;;;5.63;2.07;;;16.00;99.90;;;;;;6091867;23;20533;-81
2022/06/09 06:46:39;;;;;;;3.90;2.20;;;16.00;99.90;;;;;;6091659;23;20903;-81
2022/06/09 06:49:08;;;;;;;3.63;1.83;;;15.90;99.90;;;;;;6091946;23;20533;-81
2022/06/09 06:51:36;;;;;;;3.77;1.77;;;15.90;99.90;;;;;;6092340;23;20497;-81
2022/06/09 06:54:05;;;;;;;7.83;2.50;;;15.90;99.90;;;;;;6092132;23;20431;-82
2022/06/09 06:56:33;;;;;;;4.43;1.60;;;16.00;99.90;;;;;;6091571;23;20449;-82
2022/06/09 06:59:01;;;;;;;3.67;1.80;;;16.10;99.90;;;;;;6091757;23;20468;-81
2022/06/09 07:01:28;;;;;;;3.53;1.97;;;16.30;99.90;;;;;;6092435;23;20528;-81
2022/06/09 07:03:56;;;;;;;2.87;1.87;;;16.50;99.90;;;;;;6091565;23;20936;-81
2022/06/09 07:06:25;;;;;;;4.40;2.10;;;16.70;99.90;;;;;;6091815;23;20465;-81
2022/06/09 07:08:52;;;;;;;3.23;2.03;;;16.80;99.90;;;;;;6092240;23;20802;-81
2022/06/09 07:11:19;;;;;;;3.30;1.93;;;16.90;99.90;;;;;;6091652;23;20964;-81
2022/06/09 07:13:47;;;;;;;4.50;1.73;;;17.10;99.90;;;;;;6092092;23;20466;-81
2022/06/09 07:16:14;;;;;;;4.73;1.83;;;17.30;99.90;;;;;;6091640;23;20494;-81
2022/06/09 07:18:41;;;;;;;5.30;1.60;;;17.50;99.90;;;;;;6091957;23;20462;-81
2022/06/09 07:21:08;;;;;;;3.97;1.73;;;17.50;99.90;;;;;;6091588;23;20992;-81
2022/06/09 07:23:38;;;;;;;5.83;1.90;;;17.50;99.90;;;;;;6092369;23;20441;-81
2022/06/09 07:26:05;;;;;;;3.57;1.43;;;17.40;99.90;;;;;;6092073;23;20472;-81
2022/06/09 07:28:32;;;;;;;2.43;1.30;;;17.30;99.90;;;;;;6092072;23;20964;-81
2022/06/09 07:31:01;;;;;;;5.50;1.80;;;17.40;99.90;;;;;;6091790;23;20820;-81
2022/06/09 07:33:36;;;;;;;6.20;1.70;;;17.50;99.90;;;;;;6091985;23;20527;-81
2022/06/09 07:36:06;;;;;;;2.93;1.70;;;17.70;99.90;;;;;;6091633;23;20490;-81
2022/06/09 07:38:33;;;;;;;5.00;1.87;;;17.70;99.90;;;;;;6091783;23;20461;-81
2022/06/09 07:41:01;;;;;;;4.00;1.30;;;17.90;99.90;;;;;;6092313;23;20483;-81
2022/06/09 07:43:28;;;;;;;3.97;1.77;;;18.30;99.90;;;;;;6092017;23;20435;-81
2022/06/09 07:45:56;;;;;;;6.57;2.20;;;18.60;99.90;;;;;;6091806;23;20529;-81
2022/06/09 07:48:23;;;;;;;2.93;1.37;;;19.00;99.90;;;;;;6092306;23;20549;-81
2022/06/09 07:50:51;;;;;;;2.73;1.33;;;19.40;99.90;;;;;;6091761;23;20466;-81
2022/06/09 07:53:19;;;;;;;2.40;1.93;;;19.60;99.90;;;;;;6091603;23;20466;-81
2022/06/09 07:55:46;;;;;;;4.70;1.80;;;19.70;99.90;;;;;;6091907;23;20485;-81
2022/06/09 07:58:17;;;;;;;3.90;1.73;;;20.10;99.90;;;;;;6091693;23;20533;-81
2022/06/09 08:00:44;;;;;;;2.50;1.40;;;20.50;99.90;;;;;;6092190;23;20449;-81
2022/06/09 08:03:18;;;;;;;3.77;1.50;;;20.80;99.90;;;;;;6092038;23;20529;-81
2022/06/09 08:05:45;;;;;;;2.23;1.53;;;21.10;99.90;;;;;;6092108;23;20441;-81
2022/06/09 08:08:11;;;;;;;6.27;2.00;;;21.20;99.90;;;;;;6092182;23;20458;-81
2022/06/09 08:10:39;;;;;;;2.53;1.40;;;21.30;99.90;;;;;;6092105;23;20466;-82
2022/06/09 08:13:07;;;;;;;3.90;1.50;;;21.10;99.90;;;;;;6093119;23;20436;-82
2022/06/09 08:15:36;;;;;;;4.40;1.60;;;21.00;99.90;;;;;;6102797;23;20468;-81
2022/06/09 08:18:03;;;;;;;4.07;1.30;;;21.10;99.90;;;;;;6102969;23;20484;-81
2022/06/09 08:20:33;;;;;;;2.60;1.33;;;21.00;99.90;;;;;;6104183;23;20434;-81
2022/06/09 08:23:01;;;;;;;7.50;1.80;;;20.60;99.90;;;;;;6103935;23;20458;-80
2022/06/09 08:25:28;;;;;;;5.47;1.90;;;20.10;99.90;;;;;;6100626;23;20492;-81
2022/06/09 08:27:57;;;;;;;3.70;1.57;;;20.50;99.90;;;;;;6100210;23;20441;-81
2022/06/09 08:30:24;;;;;;;3.10;1.57;;;21.20;99.90;;;;;;6100956;23;20485;-81
2022/06/09 08:32:53;;;;;;;2.67;1.40;;;21.50;99.90;;;;;;6103044;23;20434;-81
2022/06/09 08:35:21;;;;;;;3.10;1.20;;;21.20;99.90;;;;;;6103444;23;20472;-81
2022/06/09 08:37:51;;;;;;;3.20;1.40;;;20.70;99.90;;;;;;6103581;23;20506;-80
2022/06/09 08:40:22;;;;;;;4.97;1.60;;;20.30;99.90;;;;;;6105357;23;20442;-81
2022/06/09 08:43:07;;;;;;;2.47;1.33;;;19.60;99.90;;;;;;6106170;23;20438;-81
2022/06/09 08:45:41;;;;;;;5.60;1.23;;;19.20;99.90;;;;;;6104378;23;20430;-81
2022/06/09 08:48:18;;;;;;;3.97;1.63;;;19.70;99.90;;;;;;6103725;23;20474;-81
2022/06/09 08:50:54;;;;;;;5.27;1.70;;;20.60;99.90;;;;;;6101771;23;20462;-80
2022/06/09 08:53:27;;;;;;;3.10;1.63;;;21.20;99.90;;;;;;6102657;23;20450;-81
2022/06/09 08:55:56;;;;;;;4.37;1.40;;;21.50;99.90;;;;;;6102203;23;20458;-81
2022/06/09 08:58:29;;;;;;;2.13;1.30;;;21.80;99.90;;;;;;6099385;23;20458;-81
2022/06/09 09:01:03;;;;;;;3.30;1.40;;;22.40;99.90;;;;;;6100722;23;20529;-80
2022/06/09 09:03:34;;;;;;;3.93;1.40;;;22.60;99.90;;;;;;6102715;23;20501;-81
2022/06/09 09:06:07;;;;;;;6.30;1.40;;;22.50;99.90;;;;;;6102473;23;20947;-81
2022/06/09 09:08:36;;;;;;;2.50;1.40;;;21.80;99.90;;;;;;6099756;23;20520;-81
2022/06/09 09:11:18;;;;;;;3.67;1.30;;;21.70;99.90;;;;;;6103018;23;20989;-81
2022/06/09 09:13:50;;;;;;;2.33;1.33;;;22.00;99.90;;;;;;6100764;23;20426;-81
2022/06/09 09:16:25;;;;;;;3.20;1.30;;;22.30;99.90;;;;;;6104359;23;20495;-81
2022/06/09 09:19:02;;;;;;;2.00;1.27;;;22.50;99.90;;;;;;6105673;23;20953;-80
2022/06/09 09:21:54;;;;;;;3.70;1.60;;;22.70;99.90;;;;;;6103943;23;20458;-82
2022/06/09 09:24:28;;;;;;;2.50;1.40;;;23.20;99.90;;;;;;6104805;23;20446;-81
2022/06/09 09:27:08;;;;;;;1.87;1.13;;;22.90;99.90;;;;;;6104407;23;20461;-81
2022/06/09 09:29:43;;;;;;;2.17;1.03;;;22.90;99.90;;;;;;6101833;23;20457;-81
2022/06/09 09:32:14;;;;;;;1.80;1.00;;;23.00;99.90;;;;;;6092597;23;20461;-81
2022/06/09 09:34:44;;;;;;;2.23;0.97;;;23.20;99.40;;;;;;6091119;23;20470;-81
2022/06/09 09:37:22;;;;;;;4.47;1.43;;;23.60;99.40;;;;;;6090756;23;20434;-82
2022/06/09 09:39:55;;;;;;;2.80;1.10;;;24.10;97.80;;;;;;6090913;23;21036;-82
2022/06/09 09:42:25;;;;;;;4.80;1.50;;;24.60;97.60;;;;;;6091203;23;20422;-82
2022/06/09 09:45:16;;;;;;;1.80;1.20;;;24.60;97.10;;;;;;6091063;23;20445;-82
2022/06/09 09:47:47;;;;;;;2.27;0.90;;;24.70;96.50;;;;;;6093922;23;20433;-81
2022/06/09 09:50:26;;;;;;;1.97;1.13;;;25.20;96.30;;;;;;6090766;23;20960;-81
2022/06/09 09:53:06;;;;;;;2.47;1.67;;;25.40;95.20;;;;;;6090552;23;20458;-82
2022/06/09 09:55:37;;;;;;;2.27;1.50;;;25.60;95.20;;;;;;6090594;23;20438;-82
2022/06/09 09:58:26;;;;;;;3.30;1.20;;;25.70;95.30;;;;;;6091033;23;20454;-82
2022/06/09 10:00:56;;;;;;;5.13;1.80;;;25.90;95.00;;;;;;6090740;23;20473;-81
2022/06/09 10:09:17;;;;;;;3.90;1.70;;;25.10;94.00;;;;;;6090638;23;20500;-82
2022/06/09 10:11:58;;;;;;;1.67;1.10;;;24.90;93.70;;;;;;6090089;23;20995;-81
2022/06/09 10:14:41;;;;;;;5.07;1.27;;;24.40;94.10;;;;;;6090544;23;20427;-82
2022/06/09 10:17:23;;;;;;;2.17;1.40;;;24.30;93.70;;;;;;6091118;23;20504;-81
2022/06/09 10:19:54;;;;;;;3.33;1.23;;;24.20;94.50;;;;;;6091647;23;20876;-82
2022/06/09 10:22:24;;;;;;;4.27;1.33;;;24.70;94.60;;;;;;6091530;23;20797;-82
2022/06/09 10:24:57;;;;;;;2.67;1.47;;;25.10;94.50;;;;;;6091915;23;20921;-82
2022/06/09 10:27:29;;;;;;;2.70;1.50;;;24.50;94.00;;;;;;6091812;23;20446;-81
2022/06/09 10:30:02;;;;;;;2.97;1.20;;;24.20;93.10;;;;;;6092127;23;20743;-81
2022/06/09 10:32:36;;;;;;;3.03;1.17;;;24.00;93.20;;;;;;6091990;23;20509;-82
2022/06/09 10:35:08;;;;;;;2.73;1.20;;;24.10;93.90;;;;;;6091678;23;20445;-82
2022/06/09 10:37:41;;;;;;;1.60;1.10;;;24.50;93.70;;;;;;6091665;23;20423;-82
2022/06/09 10:40:20;;;;;;;2.63;1.13;;;25.00;93.20;;;;;;6092315;23;20439;-82
2022/06/09 10:42:53;;;;;;;3.50;1.30;;;25.30;91.80;;;;;;6092002;23;20434;-82
2022/06/09 10:45:26;;;;;;;2.17;1.10;;;25.70;91.90;;;;;;6091631;23;20834;-82
2022/06/09 10:56:33;;;;;;;2.70;1.27;;;22.60;94.00;;;;;;6091493;23;20442;-82
2022/06/09 10:59:05;;;;;;;2.30;1.37;;;22.20;94.30;;;;;;6091967;23;20451;-82
2022/06/09 11:01:34;;;;;;;1.97;1.13;;;21.70;95.20;;;;;;6092028;23;20457;-82
2022/06/09 11:04:04;;;;;;;2.70;1.50;;;22.10;95.80;;;;;;6092202;23;20470;-82
2022/06/09 11:06:54;;;;;;;4.80;1.60;;;22.40;96.30;;;;;;6091720;23;20433;-82
2022/06/09 11:09:30;;;;;;;3.90;1.87;;;22.30;96.20;;;;;;6092317;23;20452;-82
2022/06/09 11:12:14;;;;;;;2.93;1.33;;;22.10;97.00;;;;;;6092269;23;20469;-82
2022/06/09 11:14:54;;;;;;;4.57;1.60;;;21.80;97.40;;;;;;6091791;23;20545;-82
2022/06/09 11:17:36;;;;;;;2.87;1.70;;;21.50;98.10;;;;;;6091311;23;20446;-82
2022/06/09 11:20:22;;;;;;;6.20;1.50;;;20.80;98.70;;;;;;6091478;23;20462;-82
2022/06/09 11:22:58;;;;;;;4.07;1.50;;;20.80;99.80;;;;;;6091989;23;20466;-82
2022/06/09 11:25:45;;;;;;;4.73;1.47;;;21.70;99.20;;;;;;6091309;23;20480;-82
2022/06/09 11:28:25;;;;;;;4.57;1.60;;;22.70;98.40;;;;;;6091727;23;20533;-82
2022/06/09 11:31:06;;;;;;;3.70;1.50;;;23.20;97.00;;;;;;6091805;23;20565;-82
2022/06/09 11:33:49;;;;;;;3.37;1.77;;;22.90;96.60;;;;;;6091505;23;20430;-82
2022/06/09 11:36:24;;;;;;;4.30;1.93;;;22.50;97.20;;;;;;6091054;23;20430;-82
2022/06/09 11:39:01;;;;;;;3.00;1.53;;;22.40;97.90;;;;;;6091540;23;20477;-82
2022/06/09 11:41:40;;;;;;;3.87;1.63;;;22.70;97.70;;;;;;6091500;23;20430;-83
2022/06/09 11:44:22;;;;;;;4.10;1.70;;;22.80;97.70;;;;;;6091438;23;20484;-83
2022/06/09 11:46:51;;;;;;;2.13;1.47;;;23.10;97.20;;;;;;6091398;23;20523;-82
2022/06/09 11:49:24;;;;;;;2.13;1.30;;;23.50;96.90;;;;;;6090963;23;20470;-83
2022/06/09 11:51:52;;;;;;;3.03;1.33;;;23.70;94.90;;;;;;6091334;23;20478;-82
2022/06/09 11:54:58;;;;;;;2.10;1.30;;;24.00;94.50;;;;;;6091080;23;20438;-82
2022/06/09 11:57:43;;;;;;;2.33;1.60;;;24.20;94.00;;;;;;6091591;23;20440;-82
2022/06/09 12:00:37;;;;;;;2.80;1.60;;;24.60;93.70;;;;;;6091779;23;20442;-82
2022/06/09 12:03:32;;;;;;;2.33;1.20;;;24.40;94.10;;;;;;6091371;23;20806;-82
2022/06/09 12:06:03;;;;;;;3.03;1.60;;;24.80;94.60;;;;;;6091046;23;20442;-82
2022/06/09 12:08:37;;;;;;;5.80;1.80;;;25.00;94.60;;;;;;6091450;23;20496;-84
2022/06/09 12:11:10;;;;;;;4.03;1.60;;;25.60;93.90;;;;;;6091389;23;20669;-83
2022/06/09 12:14:02;;;;;;;1.70;1.00;;;25.80;92.30;;;;;;6091259;23;20461;-82
2022/06/09 12:16:33;;;;;;;2.03;1.10;;;25.40;88.10;;;;;;6090863;23;20512;-82
2022/06/09 12:19:15;;;;;;;2.27;1.40;;;25.10;90.40;;;;;;6090968;23;20452;-83
2022/06/09 12:21:46;;;;;;;2.17;1.30;;;24.90;91.10;;;;;;6091405;23;20439;-83
2022/06/09 12:24:27;;;;;;;3.20;1.30;;;25.20;90.60;;;;;;6091447;23;20520;-82
2022/06/09 12:27:01;;;;;;;2.20;1.30;;;25.10;89.90;;;;;;6091147;23;20442;-83
2022/06/09 12:29:45;;;;;;;2.60;1.13;;;25.30;90.00;;;;;;6091209;23;20454;-83
2022/06/09 12:32:38;;;;;;;3.60;1.27;;;25.00;90.10;;;;;;6091196;23;20954;-82
2022/06/09 12:35:19;;;;;;;1.53;1.10;;;24.90;90.20;;;;;;6091765;23;20462;-82
2022/06/09 12:37:53;;;;;;;1.80;1.33;;;24.80;88.50;;;;;;6090675;23;20469;-83
2022/06/09 12:40:25;;;;;;;2.00;1.20;;;25.00;90.00;;;;;;6090904;23;20565;-83
2022/06/09 12:42:55;;;;;;;1.70;1.20;;;25.10;89.60;;;;;;6090812;23;20438;-83
2022/06/09 12:45:26;;;;;;;2.73;1.13;;;25.30;88.50;;;;;;6091278;23;20526;-83
2022/06/09 12:47:57;;;;;;;2.50;1.43;;;25.50;85.30;;;;;;6091039;23;21023;-83
2022/06/09 12:50:38;;;;;;;2.33;1.37;;;25.90;85.70;;;;;;6091409;23;20444;-83
2022/06/09 12:53:07;;;;;;;2.70;1.53;;;26.40;86.00;;;;;;6090851;23;20791;-83
2022/06/09 12:55:36;;;;;;;2.03;1.00;;;27.00;82.70;;;;;;6090688;23;20442;-82
2022/06/09 12:58:17;;;;;;;3.27;1.20;;;26.70;82.50;;;;;;6091231;23;20461;-82
2022/06/09 13:00:49;;;;;;;2.30;1.40;;;26.80;83.30;;;;;;6090925;23;20429;-83
2022/06/09 13:03:23;;;;;;;2.43;1.57;;;25.90;84.70;;;;;;6091145;23;20434;-83
2022/06/09 13:05:51;;;;;;;2.70;1.37;;;25.30;85.40;;;;;;6090940;23;20509;-82
2022/06/09 13:08:22;;;;;;;1.83;1.20;;;25.10;85.00;;;;;;6090842;23;20454;-83
2022/06/09 13:10:56;;;;;;;1.53;1.20;;;25.80;84.40;;;;;;6091000;23;20477;-83
2022/06/09 13:13:26;;;;;;;2.17;1.30;;;28.00;81.10;;;;;;6090590;23;20785;-83
2022/06/09 13:16:01;;;;;;;2.10;1.23;;;30.70;76.70;;;;;;6090162;23;20963;-83
2022/06/09 13:18:32;;;;;;;2.47;1.50;;;33.20;69.60;;;;;;6090766;23;20563;-83
2022/06/09 13:21:06;;;;;;;1.60;1.10;;;33.90;61.40;;;;;;6090584;23;21006;-83
2022/06/09 13:23:34;;;;;;;2.60;1.40;;;33.70;58.50;;;;;;6090775;23;20470;-83
2022/06/09 13:26:01;;;;;;;4.70;1.60;;;34.50;56.00;;;;;;6090977;23;20445;-83
2022/06/09 13:28:38;;;;;;;2.50;1.20;;;35.20;55.30;;;;;;6090350;23;20485;-83
2022/06/09 13:31:23;;;;;;;2.50;1.13;;;36.30;52.00;;;;;;6090959;23;21162;-83